Time;durP1;ratioP1;P1;durP2;ratioP2;P2;SDS_P1;SDS_P2;PMS_P1;PMS_P2;Temp;Humidity;BMP_temperature;BMP_pressure;BME280_temperature;BME280_humidity;BME280_pressure;Samples;Min_cycle;Max_cycle;Signal;HPM_P1;HPM_P2
2022/05/16 00:00:10;;;;;;;0.10;0.10;;;;;;;20.14;76.40;99233.00;5052373;28;20523;-76
2022/05/16 00:02:36;;;;;;;0.10;0.10;;;;;;;20.15;76.72;99233.78;5051675;28;20083;-76
2022/05/16 00:05:01;;;;;;;0.10;0.10;;;;;;;20.09;76.21;99225.06;5050983;28;20032;-76
2022/05/16 00:07:27;;;;;;;0.05;0.05;;;;;;;20.12;75.79;99227.09;5052019;28;20021;-76
2022/05/16 00:09:52;;;;;;;0.10;0.10;;;;;;;20.05;75.47;99228.78;5052047;28;20021;-76
2022/05/16 00:12:18;;;;;;;0.00;0.00;;;;;;;20.04;74.18;99225.25;5051716;28;20036;-74
2022/05/16 00:14:44;;;;;;;0.10;0.10;;;;;;;19.87;73.88;99218.06;5051897;28;20108;-76
2022/05/16 00:17:10;;;;;;;2.10;0.38;;;;;;;19.87;73.63;99220.00;5052391;28;20472;-76
2022/05/16 00:19:36;;;;;;;0.00;0.00;;;;;;;19.77;73.85;99219.25;5051170;28;20044;-76
2022/05/16 00:22:01;;;;;;;0.20;0.20;;;;;;;19.77;73.78;99224.69;5052023;28;20545;-76
2022/05/16 00:24:28;;;;;;;0.10;0.10;;;;;;;19.76;73.53;99223.13;5051253;28;20048;-75
2022/05/16 00:26:54;;;;;;;0.10;0.10;;;;;;;19.80;73.48;99234.09;5051615;28;20051;-76
2022/05/16 00:29:20;;;;;;;0.00;0.00;;;;;;;19.79;73.31;99222.44;5051069;28;20522;-76
2022/05/16 00:31:46;;;;;;;0.10;0.10;;;;;;;19.84;73.18;99235.81;5051335;28;20025;-76
2022/05/16 00:34:12;;;;;;;0.00;0.00;;;;;;;19.85;73.12;99242.06;5051738;28;20035;-76
2022/05/16 00:36:37;;;;;;;0.10;0.10;;;;;;;19.92;72.88;99233.38;5049947;28;20017;-76
2022/05/16 00:39:03;;;;;;;0.00;0.00;;;;;;;19.93;72.61;99232.25;5050921;28;20500;-74
2022/05/16 00:41:28;;;;;;;0.10;0.10;;;;;;;19.95;72.45;99236.22;5050363;28;20041;-74
2022/05/16 00:43:59;;;;;;;0.10;0.10;;;;;;;19.90;72.49;99241.06;5051815;28;20527;-75
2022/05/16 00:46:29;;;;;;;0.10;0.10;;;;;;;19.85;72.33;99236.63;5051290;28;20043;-76
2022/05/16 00:48:56;;;;;;;0.10;0.10;;;;;;;19.79;72.33;99238.72;5046417;28;20025;-75
2022/05/16 00:51:30;;;;;;;0.10;0.10;;;;;;;19.83;72.00;99241.56;5051779;28;20044;-75
2022/05/16 00:54:05;;;;;;;0.03;0.03;;;;;;;19.77;71.97;99234.75;5051142;28;20539;-75
2022/05/16 00:56:31;;;;;;;0.00;0.00;;;;;;;19.72;72.00;99240.41;5048074;28;20024;-76
2022/05/16 00:58:57;;;;;;;0.00;0.00;;;;;;;19.67;71.29;99242.16;5031766;28;20029;-76
2022/05/16 01:06:55;;;;;;;0.10;0.10;;;;;;;19.63;71.65;99235.81;5051246;28;20047;-76
2022/05/16 01:09:21;;;;;;;0.00;0.00;;;;;;;19.60;71.13;99238.41;5050994;28;20046;-76
2022/05/16 01:11:46;;;;;;;0.00;0.00;;;;;;;19.65;71.24;99241.72;5049020;28;20064;-76
2022/05/16 01:14:46;;;;;;;0.10;0.10;;;;;;;19.68;71.14;99238.34;5049835;28;20053;-76
2022/05/16 01:17:12;;;;;;;0.05;0.05;;;;;;;19.69;71.10;99244.56;5050405;28;20112;-76
2022/05/16 01:19:37;;;;;;;0.00;0.00;;;;;;;19.78;70.64;99239.84;5050575;28;20074;-76
2022/05/16 01:22:32;;;;;;;0.05;0.05;;;;;;;19.77;70.38;99242.91;5051101;28;20056;-74
2022/05/16 01:25:04;;;;;;;0.10;0.10;;;;;;;19.71;70.03;99239.59;5048257;28;20060;-75
2022/05/16 01:27:44;;;;;;;0.00;0.00;;;;;;;19.70;69.79;99239.94;5050054;28;20032;-74
2022/05/16 01:30:11;;;;;;;0.10;0.10;;;;;;;19.65;69.61;99243.63;5033454;28;20531;-74
2022/05/16 01:32:36;;;;;;;0.10;0.10;;;;;;;19.56;69.70;99242.91;5030826;28;20083;-74
2022/05/16 01:35:02;;;;;;;0.10;0.10;;;;;;;19.51;69.63;99241.97;5045674;28;20410;-76
2022/05/16 01:38:18;;;;;;;0.05;0.05;;;;;;;19.38;69.91;99236.81;5049340;28;20120;-75
2022/05/16 01:40:13;;;;;;;0.00;0.00;;;;;;;19.33;70.06;99240.53;5050475;28;20519;-74
2022/05/16 01:42:38;;;;;;;0.00;0.00;;;;;;;19.28;70.09;99238.78;5041501;28;20124;-74
2022/05/16 01:45:04;;;;;;;0.08;0.08;;;;;;;19.27;70.23;99239.91;5033832;28;20031;-74
2022/05/16 01:47:33;;;;;;;0.17;0.17;;;;;;;19.26;70.16;99235.63;5051643;28;20037;-74
2022/05/16 01:49:58;;;;;;;0.10;0.10;;;;;;;19.24;69.99;99234.34;5054068;28;20075;-75
2022/05/16 01:52:24;;;;;;;0.08;0.08;;;;;;;19.19;70.22;99235.38;5054767;28;20447;-74
2022/05/16 01:54:49;;;;;;;0.00;0.00;;;;;;;19.19;69.95;99248.91;5054828;28;20043;-74
2022/05/16 01:57:14;;;;;;;0.05;0.05;;;;;;;19.17;70.22;99249.22;5054709;28;20476;-74
2022/05/16 01:59:40;;;;;;;0.00;0.00;;;;;;;19.14;69.79;99249.09;5054110;28;20029;-75
2022/05/16 02:02:05;;;;;;;0.00;0.00;;;;;;;19.11;69.64;99247.84;5051780;28;20057;-76
2022/05/16 02:04:30;;;;;;;0.10;0.10;;;;;;;19.14;69.20;99252.59;5034459;28;20108;-75
2022/05/16 02:06:56;;;;;;;0.00;0.00;;;;;;;19.01;69.42;99249.00;5034619;28;20041;-76
2022/05/16 02:09:21;;;;;;;0.10;0.10;;;;;;;18.99;69.79;99255.88;5034510;28;20025;-77
2022/05/16 02:11:47;;;;;;;0.10;0.10;;;;;;;19.00;69.78;99257.47;5040899;28;20546;-75
2022/05/16 02:14:12;;;;;;;0.20;0.20;;;;;;;18.99;70.01;99264.81;5054387;28;20025;-75
2022/05/16 02:16:38;;;;;;;0.25;0.25;;;;;;;18.93;70.18;99259.91;5053330;28;20028;-75
2022/05/16 02:19:03;;;;;;;0.20;0.20;;;;;;;18.86;70.47;99257.69;5054264;28;20056;-75
2022/05/16 02:26:56;;;;;;;0.00;0.00;;;;;;;18.70;70.44;99258.22;5046842;28;20420;-76
2022/05/16 02:29:22;;;;;;;0.10;0.10;;;;;;;18.75;70.45;99259.16;5034050;28;20021;-76
2022/05/16 02:31:47;;;;;;;0.10;0.10;;;;;;;18.73;70.81;99262.19;5032640;28;20493;-75
2022/05/16 02:34:14;;;;;;;0.05;0.05;;;;;;;18.76;70.91;99268.88;5034115;28;20079;-74
2022/05/16 02:36:40;;;;;;;0.00;0.00;;;;;;;18.79;70.55;99260.88;5033865;28;20033;-75
2022/05/16 02:39:06;;;;;;;0.10;0.10;;;;;;;18.78;70.56;99267.41;5050413;28;20033;-75
2022/05/16 02:41:31;;;;;;;0.00;0.00;;;;;;;18.76;70.39;99264.25;5053307;28;20048;-75
2022/05/16 02:43:57;;;;;;;0.00;0.00;;;;;;;18.72;70.37;99258.69;5053601;28;20536;-75
2022/05/16 02:46:22;;;;;;;0.00;0.00;;;;;;;18.79;69.77;99257.38;5052096;28;20435;-75
2022/05/16 02:48:47;;;;;;;0.00;0.00;;;;;;;18.65;69.87;99257.59;5052192;28;20150;-75
2022/05/16 02:51:13;;;;;;;0.05;0.05;;;;;;;18.71;70.13;99261.72;5051660;28;20033;-75
2022/05/16 02:53:38;;;;;;;0.05;0.05;;;;;;;18.66;70.26;99264.59;5052669;28;20045;-75
2022/05/16 02:56:04;;;;;;;0.10;0.10;;;;;;;18.66;69.73;99261.88;5053400;28;20114;-75
2022/05/16 02:58:29;;;;;;;0.10;0.10;;;;;;;18.65;69.80;99257.59;5053272;28;20029;-75
2022/05/16 03:00:55;;;;;;;0.10;0.10;;;;;;;18.62;69.63;99258.25;5053520;28;20082;-74
2022/05/16 03:03:20;;;;;;;0.10;0.10;;;;;;;18.63;69.47;99259.84;5053488;28;20108;-76
2022/05/16 03:05:46;;;;;;;0.00;0.00;;;;;;;18.69;69.34;99259.34;5052988;28;20029;-77
2022/05/16 03:08:12;;;;;;;0.10;0.10;;;;;;;18.63;69.02;99260.63;5068518;28;20029;-75
2022/05/16 03:10:37;;;;;;;0.10;0.10;;;;;;;18.56;68.92;99260.34;5052942;28;20116;-76
2022/05/16 03:13:03;;;;;;;0.00;0.00;;;;;;;18.61;69.17;99264.78;5053355;28;20033;-76
2022/05/16 03:15:30;;;;;;;0.05;0.05;;;;;;;18.63;68.88;99267.97;5053265;28;20056;-75
2022/05/16 03:17:56;;;;;;;0.00;0.00;;;;;;;18.81;68.59;99274.91;5052867;28;20029;-76
2022/05/16 03:20:21;;;;;;;0.10;0.10;;;;;;;18.92;68.23;99272.66;5052431;28;20067;-76
2022/05/16 03:22:47;;;;;;;0.10;0.10;;;;;;;19.01;67.77;99269.91;5053148;28;20055;-76
2022/05/16 03:25:13;;;;;;;0.00;0.00;;;;;;;19.16;66.67;99282.91;5048144;28;20412;-76
2022/05/16 03:27:39;;;;;;;0.10;0.10;;;;;;;19.36;65.81;99281.34;5051412;28;20028;-76
2022/05/16 03:30:07;;;;;;;0.10;0.10;;;;;;;19.41;65.30;99279.53;5051764;28;20037;-76
2022/05/16 03:32:32;;;;;;;0.10;0.10;;;;;;;19.40;65.11;99280.69;5032413;28;20411;-76
2022/05/16 03:34:58;;;;;;;0.10;0.10;;;;;;;19.44;64.76;99293.25;5032660;28;20029;-75
2022/05/16 03:37:23;;;;;;;0.10;0.10;;;;;;;19.43;64.56;99291.69;5032665;28;20061;-75
2022/05/16 03:42:34;;;;;;;0.00;0.00;;;;;;;19.31;65.05;99286.16;5047726;28;20192;-77
2022/05/16 03:44:59;;;;;;;0.00;0.00;;;;;;;19.36;64.55;99291.41;5032958;28;20037;-77
2022/05/16 03:47:25;;;;;;;0.10;0.10;;;;;;;19.46;64.89;99291.00;5032729;28;20040;-75
2022/05/16 03:49:51;;;;;;;0.10;0.10;;;;;;;19.62;64.37;99288.50;5035553;28;20112;-75
2022/05/16 03:52:16;;;;;;;0.05;0.05;;;;;;;19.77;63.97;99289.03;5041156;28;20030;-76
2022/05/16 03:54:42;;;;;;;0.10;0.10;;;;;;;19.94;64.17;99294.34;5046285;28;20111;-76
2022/05/16 03:57:08;;;;;;;0.10;0.10;;;;;;;20.12;62.96;99305.06;5052537;28;20472;-76
2022/05/16 03:59:34;;;;;;;0.05;0.05;;;;;;;20.30;62.13;99302.97;5050937;28;20112;-73
2022/05/16 04:01:59;;;;;;;0.10;0.10;;;;;;;20.54;61.97;99304.16;5052370;28;20470;-74
2022/05/16 04:04:26;;;;;;;0.10;0.10;;;;;;;20.85;60.74;99300.94;5051773;28;20603;-78
2022/05/16 04:06:52;;;;;;;0.10;0.10;;;;;;;21.30;59.81;99310.13;5051065;28;20037;-78
2022/05/16 04:09:18;;;;;;;0.10;0.10;;;;;;;21.72;59.41;99314.50;5033195;28;20043;-78
2022/05/16 04:11:43;;;;;;;0.00;0.00;;;;;;;22.09;57.92;99308.91;5031957;28;20535;-76
2022/05/16 04:14:09;;;;;;;0.00;0.00;;;;;;;22.61;56.95;99306.44;5032223;28;20025;-76
2022/05/16 04:16:37;;;;;;;0.00;0.00;;;;;;;22.99;55.52;99319.44;5033171;28;20558;-76
2022/05/16 04:19:03;;;;;;;0.10;0.10;;;;;;;23.52;53.49;99318.31;5032185;28;20459;-73
2022/05/16 04:21:28;;;;;;;0.70;0.43;;;;;;;23.93;52.14;99310.63;5047298;28;20472;-74
2022/05/16 04:23:54;;;;;;;0.03;0.03;;;;;;;24.41;51.31;99321.31;5037901;28;20108;-78
2022/05/16 04:26:19;;;;;;;0.10;0.10;;;;;;;24.86;49.93;99321.69;5040837;28;20035;-78
2022/05/16 04:28:45;;;;;;;0.10;0.10;;;;;;;25.31;48.66;99323.94;5050317;28;20115;-75
2022/05/16 04:31:10;;;;;;;0.00;0.00;;;;;;;25.74;47.50;99332.78;5039811;28;20405;-75
2022/05/16 04:33:36;;;;;;;0.00;0.00;;;;;;;26.17;46.21;99327.84;5031485;28;20029;-75
2022/05/16 04:36:02;;;;;;;0.00;0.00;;;;;;;26.49;45.50;99326.63;5031496;28;20028;-75
2022/05/16 04:38:28;;;;;;;0.00;0.00;;;;;;;26.83;44.50;99315.56;5031501;28;20495;-75
2022/05/16 04:43:51;;;;;;;0.05;0.05;;;;;;;27.62;42.86;99323.56;4997688;28;20500;-75
2022/05/16 04:46:17;;;;;;;0.00;0.00;;;;;;;27.98;42.26;99328.41;5031330;28;20033;-75
2022/05/16 04:48:43;;;;;;;0.00;0.00;;;;;;;28.22;41.38;99321.44;5031084;28;20127;-76
2022/05/16 04:51:09;;;;;;;0.00;0.00;;;;;;;28.53;40.90;99324.66;5031389;28;20474;-75
2022/05/16 04:53:36;;;;;;;0.00;0.00;;;;;;;28.86;39.67;99325.50;5030970;28;20056;-75
2022/05/16 04:56:04;;;;;;;0.00;0.00;;;;;;;29.10;38.96;99323.13;5031119;28;20181;-75
2022/05/16 04:58:32;;;;;;;;;;;;;;;29.33;38.61;99328.22;5031822;28;20121;-76
2022/05/16 05:00:57;;;;;;;;;;;;;;;29.52;38.59;99336.03;5031342;28;20380;-75
2022/05/16 05:03:22;;;;;;;0.00;0.00;;;;;;;29.64;37.85;99332.06;5030921;28;19913;-76
2022/05/16 05:05:48;;;;;;;0.00;0.00;;;;;;;29.84;37.81;99334.38;5030594;28;20108;-76
2022/05/16 05:08:13;;;;;;;0.00;0.00;;;;;;;29.98;37.58;99341.81;5031449;28;20030;-76
2022/05/16 05:16:10;;;;;;;0.00;0.00;;;;;;;30.61;37.62;99341.09;5030586;28;20052;-75
2022/05/16 05:18:38;;;;;;;0.00;0.00;;;;;;;30.68;37.07;99343.03;5030813;28;20108;-75
2022/05/16 05:21:03;;;;;;;0.00;0.00;;;;;;;30.80;37.27;99348.81;5030605;28;20018;-75
2022/05/16 05:23:29;;;;;;;0.00;0.00;;;;;;;31.01;36.85;99351.84;5029893;28;20412;-76
2022/05/16 05:25:56;;;;;;;0.00;0.00;;;;;;;31.29;36.50;99345.28;5030724;28;20025;-75
2022/05/16 05:28:22;;;;;;;0.00;0.00;;;;;;;31.51;35.85;99334.78;5030819;28;20033;-75
2022/05/16 05:30:48;;;;;;;0.00;0.00;;;;;;;31.67;35.20;99339.75;5030449;28;20038;-75
2022/05/16 05:33:13;;;;;;;0.00;0.00;;;;;;;31.89;35.28;99345.03;5030860;28;20025;-75
2022/05/16 05:35:39;;;;;;;0.00;0.00;;;;;;;32.14;34.83;99343.91;5030810;28;20516;-75
2022/05/16 05:38:04;;;;;;;0.00;0.00;;;;;;;32.34;33.98;99347.63;5030808;28;20038;-76
2022/05/16 05:40:30;;;;;;;0.00;0.00;;;;;;;32.35;33.66;99351.94;5030855;28;20472;-75
2022/05/16 05:42:55;;;;;;;0.00;0.00;;;;;;;32.51;33.41;99351.31;5030830;28;20041;-76
2022/05/16 05:45:21;;;;;;;0.00;0.00;;;;;;;32.68;33.16;99355.00;5031246;28;20037;-75
2022/05/16 05:47:46;;;;;;;0.00;0.00;;;;;;;32.78;33.46;99356.06;5030379;28;20075;-75
2022/05/16 05:50:12;;;;;;;0.00;0.00;;;;;;;32.83;33.24;99355.59;5030616;28;20025;-75
2022/05/16 05:52:38;;;;;;;0.00;0.00;;;;;;;33.01;33.16;99355.28;5030432;28;20028;-76
2022/05/16 05:55:04;;;;;;;0.00;0.00;;;;;;;33.15;33.34;99353.47;5030673;28;20120;-76
2022/05/16 05:57:29;;;;;;;0.00;0.00;;;;;;;33.21;32.98;99346.25;5030378;28;20025;-75
2022/05/16 05:59:56;;;;;;;0.10;0.10;;;;;;;33.13;33.83;99348.38;5030439;28;20032;-75
2022/05/16 06:02:23;;;;;;;0.00;0.00;;;;;;;33.03;34.12;99352.91;5030708;28;20453;-75
2022/05/16 06:04:49;;;;;;;0.10;0.10;;;;;;;32.99;34.44;99345.84;5030518;28;20026;-75
2022/05/16 06:07:15;;;;;;;0.05;0.05;;;;;;;33.02;34.54;99343.00;5029297;28;20082;-75
2022/05/16 06:09:41;;;;;;;0.28;0.28;;;;;;;32.98;35.01;99339.53;5030301;28;20036;-75
2022/05/16 06:12:08;;;;;;;0.03;0.03;;;;;;;32.91;34.85;99339.66;5030546;28;20025;-75
2022/05/16 06:14:34;;;;;;;0.27;0.27;;;;;;;32.80;35.29;99345.38;5030787;28;20032;-75
2022/05/16 06:16:59;;;;;;;0.00;0.00;;;;;;;32.87;35.53;99338.91;5029951;28;20755;-76
2022/05/16 06:19:25;;;;;;;0.00;0.00;;;;;;;32.89;35.41;99342.81;5045766;28;20030;-75
2022/05/16 06:21:51;;;;;;;0.00;0.00;;;;;;;32.88;35.47;99340.47;5030256;28;20025;-76
2022/05/16 06:27:02;;;;;;;0.00;0.00;;;;;;;32.94;35.60;99338.78;5030426;28;20037;-76
2022/05/16 06:29:28;;;;;;;0.00;0.00;;;;;;;32.72;35.42;99338.34;5030261;28;20025;-75
2022/05/16 06:31:54;;;;;;;0.10;0.10;;;;;;;32.66;36.02;99346.34;5030471;28;20025;-75
2022/05/16 06:34:20;;;;;;;0.00;0.00;;;;;;;32.68;36.05;99343.16;5032632;28;20083;-76
2022/05/16 06:36:46;;;;;;;0.20;0.20;;;;;;;32.51;36.24;99333.94;5033802;28;20091;-76
2022/05/16 06:39:11;;;;;;;0.00;0.00;;;;;;;32.35;36.69;99338.13;5033740;28;20037;-75
2022/05/16 06:41:37;;;;;;;0.00;0.00;;;;;;;32.11;37.29;99340.00;5033457;28;20050;-76
2022/05/16 06:44:03;;;;;;;0.00;0.00;;;;;;;31.75;37.87;99340.44;5033897;28;20034;-75
2022/05/16 06:46:28;;;;;;;0.00;0.00;;;;;;;31.71;38.04;99345.25;5033851;28;20469;-75
2022/05/16 06:48:54;;;;;;;0.10;0.10;;;;;;;31.48;38.34;99341.13;5033438;28;20049;-75
2022/05/16 06:51:19;;;;;;;0.00;0.00;;;;;;;31.40;39.03;99336.88;5033676;28;20514;-75
2022/05/16 06:53:45;;;;;;;0.03;0.03;;;;;;;31.39;38.55;99336.06;5033489;28;20100;-75
2022/05/16 06:56:10;;;;;;;0.00;0.00;;;;;;;31.28;39.27;99325.13;5033852;28;20030;-75
2022/05/16 06:58:36;;;;;;;0.10;0.10;;;;;;;31.17;38.31;99337.50;5033455;28;20023;-76
2022/05/16 07:01:03;;;;;;;0.00;0.00;;;;;;;30.89;39.22;99334.56;5033290;28;20459;-76
2022/05/16 07:03:29;;;;;;;0.13;0.13;;;;;;;30.85;39.17;99342.09;5033537;28;20034;-76
2022/05/16 07:05:55;;;;;;;0.32;0.20;;;;;;;30.74;39.00;99339.41;5033259;28;20029;-76
2022/05/16 07:08:22;;;;;;;0.00;0.00;;;;;;;30.65;40.05;99336.31;5033383;28;20481;-75
2022/05/16 07:10:50;;;;;;;0.00;0.00;;;;;;;30.74;40.35;99339.41;5033128;28;20029;-76
2022/05/16 07:13:15;;;;;;;0.00;0.00;;;;;;;30.75;40.63;99334.66;5033348;28;20025;-76
2022/05/16 07:15:41;;;;;;;0.10;0.10;;;;;;;30.63;40.47;99330.44;5033013;28;20048;-75
2022/05/16 07:18:07;;;;;;;0.00;0.00;;;;;;;30.44;41.15;99342.75;5033530;28;20029;-75
2022/05/16 07:20:32;;;;;;;0.00;0.00;;;;;;;30.41;41.30;99341.59;5032000;28;20397;-75
2022/05/16 07:22:58;;;;;;;0.50;0.43;;;;;;;30.34;40.74;99336.88;5032696;28;20030;-75
2022/05/16 07:25:26;;;;;;;0.20;0.20;;;;;;;30.21;41.11;99337.75;5033281;28;20029;-75
2022/05/16 07:28:01;;;;;;;0.13;0.13;;;;;;;30.12;41.66;99343.72;5032879;28;20025;-74
2022/05/16 07:30:28;;;;;;;0.85;0.17;;;;;;;30.01;42.80;99336.28;5048209;28;20026;-75
2022/05/16 07:32:55;;;;;;;0.00;0.00;;;;;;;29.81;42.45;99335.97;5033016;28;20033;-75
2022/05/16 07:35:27;;;;;;;0.00;0.00;;;;;;;29.51;43.24;99341.97;5048236;28;20132;-75
2022/05/16 07:37:53;;;;;;;0.00;0.00;;;;;;;29.43;43.32;99335.69;5032906;28;20091;-75
2022/05/16 07:40:25;;;;;;;0.00;0.00;;;;;;;29.24;43.79;99339.63;5032519;28;20108;-75
2022/05/16 07:42:52;;;;;;;0.05;0.05;;;;;;;29.10;43.60;99326.66;5032248;28;20049;-75
2022/05/16 07:45:19;;;;;;;0.10;0.10;;;;;;;28.92;44.05;99329.44;5030665;28;20507;-75
2022/05/16 07:47:45;;;;;;;0.60;0.60;;;;;;;28.84;45.52;99339.63;5031260;28;20176;-74
2022/05/16 07:50:11;;;;;;;0.05;0.05;;;;;;;28.73;45.69;99331.41;5032367;28;20100;-75
2022/05/16 07:52:37;;;;;;;0.35;0.35;;;;;;;28.50;45.32;99336.44;5032668;28;20083;-75
2022/05/16 07:55:04;;;;;;;0.43;0.43;;;;;;;28.23;45.34;99328.53;5032662;28;20116;-75
2022/05/16 07:57:30;;;;;;;0.17;0.17;;;;;;;28.25;45.57;99320.69;5033004;28;20045;-75
2022/05/16 07:59:56;;;;;;;0.10;0.10;;;;;;;28.31;46.03;99335.63;5032129;28;20481;-76
2022/05/16 08:02:22;;;;;;;0.03;0.03;;;;;;;28.36;45.45;99335.25;5032331;28;20029;-75
2022/05/16 08:04:47;;;;;;;0.10;0.10;;;;;;;28.46;44.59;99328.19;5032156;28;20032;-76
2022/05/16 08:07:12;;;;;;;0.20;0.20;;;;;;;28.51;44.40;99325.03;5032651;28;20036;-76
2022/05/16 08:12:27;;;;;;;0.00;0.00;;;;;;;28.63;44.41;99340.38;5032264;28;20032;-75
2022/05/16 08:14:53;;;;;;;0.00;0.00;;;;;;;28.70;44.43;99332.19;5031895;28;20029;-75
2022/05/16 08:17:19;;;;;;;0.00;0.00;;;;;;;28.75;44.10;99337.28;5032122;28;20152;-75
2022/05/16 08:19:45;;;;;;;0.00;0.00;;;;;;;28.81;43.07;99323.13;5031864;28;20040;-75
2022/05/16 08:22:10;;;;;;;0.40;0.40;;;;;;;28.77;43.60;99325.09;5032068;28;20409;-76
2022/05/16 08:24:36;;;;;;;0.13;0.10;;;;;;;28.80;44.96;99336.09;5031790;28;20029;-76
2022/05/16 08:27:02;;;;;;;0.47;0.47;;;;;;;28.80;43.07;99322.34;5031764;28;20492;-76
2022/05/16 08:29:31;;;;;;;0.15;0.15;;;;;;;28.75;42.62;99325.50;5031806;28;20485;-76
2022/05/16 08:31:57;;;;;;;0.03;0.03;;;;;;;28.57;43.35;99330.94;5031547;28;20138;-76
2022/05/16 08:34:23;;;;;;;0.00;0.00;;;;;;;28.44;44.31;99330.53;5031833;28;20477;-75
2022/05/16 08:42:19;;;;;;;0.08;0.08;;;;;;;28.57;43.51;99328.19;5031693;28;20136;-76
2022/05/16 08:44:57;;;;;;;0.10;0.10;;;;;;;28.44;43.82;99322.28;5031264;28;20056;-76
2022/05/16 08:47:43;;;;;;;0.22;0.22;;;;;;;28.41;44.53;99323.06;5031608;28;20029;-75
2022/05/16 08:50:24;;;;;;;0.10;0.10;;;;;;;28.43;44.18;99323.47;5031503;28;20509;-75
2022/05/16 08:53:23;;;;;;;0.00;0.00;;;;;;;28.49;44.17;99321.09;5031369;28;20025;-76
2022/05/16 08:56:03;;;;;;;0.10;0.10;;;;;;;28.53;43.20;99327.41;5021983;28;20163;-75
2022/05/16 08:58:37;;;;;;;0.80;0.20;;;;;;;28.48;43.36;99320.34;5031542;28;20035;-75
2022/05/16 09:01:08;;;;;;;0.00;0.00;;;;;;;28.59;41.87;99321.13;5031170;28;20104;-75
2022/05/16 09:03:48;;;;;;;0.05;0.05;;;;;;;28.51;42.23;99316.78;5031101;28;20025;-75
2022/05/16 09:06:32;;;;;;;0.05;0.05;;;;;;;28.54;41.93;99306.97;5031348;28;20029;-75
2022/05/16 09:09:06;;;;;;;0.00;0.00;;;;;;;28.64;42.40;99305.41;5030709;28;20025;-75
2022/05/16 09:12:07;;;;;;;0.00;0.00;;;;;;;28.67;41.57;99310.91;5031236;28;20033;-75
2022/05/16 09:14:54;;;;;;;0.03;0.03;;;;;;;28.65;41.51;99310.53;5031237;28;20034;-75
2022/05/16 09:17:32;;;;;;;0.20;0.20;;;;;;;28.71;41.53;99305.44;5031411;28;20029;-75
2022/05/16 09:20:38;;;;;;;0.00;0.00;;;;;;;28.70;40.17;99298.38;5031163;28;20029;-76
2022/05/16 09:23:33;;;;;;;0.20;0.17;;;;;;;28.60;41.61;99286.94;4989152;28;20085;-76
2022/05/16 09:26:17;;;;;;;0.10;0.10;;;;;;;28.66;40.82;99292.84;5030534;28;20420;-76
2022/05/16 09:29:25;;;;;;;0.05;0.05;;;;;;;28.65;39.85;99291.25;5030587;28;20079;-76
2022/05/16 09:31:54;;;;;;;0.13;0.13;;;;;;;28.62;39.73;99280.25;5030847;28;20112;-76
2022/05/16 09:34:20;;;;;;;0.10;0.10;;;;;;;28.65;39.90;99274.75;5030896;28;20033;-76
2022/05/16 09:36:49;;;;;;;0.00;0.00;;;;;;;28.53;39.20;99281.44;5030728;28;20033;-75
2022/05/16 09:39:21;;;;;;;0.10;0.10;;;;;;;28.55;39.22;99276.31;5030954;28;20091;-75
2022/05/16 09:42:20;;;;;;;0.00;0.00;;;;;;;28.61;38.58;99284.97;5030586;28;20104;-76
2022/05/16 09:44:46;;;;;;;0.22;0.22;;;;;;;28.60;39.87;99272.41;5030603;28;20040;-76
2022/05/16 09:47:36;;;;;;;0.00;0.00;;;;;;;28.65;39.52;99268.44;5046279;28;20033;-76
2022/05/16 09:50:23;;;;;;;0.00;0.00;;;;;;;28.51;40.52;99272.00;5030787;28;20021;-76
2022/05/16 09:53:09;;;;;;;0.00;0.00;;;;;;;28.40;39.20;99277.50;5030681;28;20033;-76
2022/05/16 09:55:41;;;;;;;0.25;0.25;;;;;;;28.25;39.41;99271.97;5031136;28;20067;-75
2022/05/16 09:58:19;;;;;;;0.30;0.20;;;;;;;28.04;39.46;99275.44;5030772;28;20400;-75
2022/05/16 10:00:59;;;;;;;0.00;0.00;;;;;;;27.95;39.69;99264.81;5030386;28;20033;-75
2022/05/16 10:03:36;;;;;;;0.38;0.35;;;;;;;27.98;39.82;99265.19;5030756;28;20133;-75
2022/05/16 10:06:08;;;;;;;0.52;0.52;;;;;;;27.85;39.32;99253.78;5045763;28;20378;-75
2022/05/16 10:08:36;;;;;;;0.75;0.45;;;;;;;27.76;40.58;99259.66;5031848;28;20061;-76
2022/05/16 10:11:06;;;;;;;0.93;0.43;;;;;;;27.72;40.83;99251.41;5034139;28;20026;-75
2022/05/16 10:13:32;;;;;;;0.10;0.10;;;;;;;27.54;41.19;99250.53;5034493;28;20033;-75
2022/05/16 10:16:00;;;;;;;0.10;0.10;;;;;;;27.56;41.11;99238.00;5034270;28;20025;-75
2022/05/16 10:18:28;;;;;;;0.38;0.38;;;;;;;27.64;39.42;99242.31;5034633;28;20030;-75
2022/05/16 10:20:59;;;;;;;0.20;0.20;;;;;;;27.71;38.65;99243.53;5032652;28;20104;-75
2022/05/16 10:23:32;;;;;;;0.38;0.38;;;;;;;27.73;38.45;99238.44;5034193;28;20038;-75
2022/05/16 10:26:02;;;;;;;0.03;0.03;;;;;;;27.68;38.65;99227.84;5034360;28;20037;-75
2022/05/16 10:28:32;;;;;;;1.00;0.65;;;;;;;27.79;39.31;99223.94;5034029;28;20057;-76
2022/05/16 10:33:47;;;;;;;0.10;0.10;;;;;;;27.90;41.04;99210.22;5033579;28;20035;-76
2022/05/16 10:36:35;;;;;;;0.10;0.10;;;;;;;27.94;40.63;99208.28;5034042;28;20117;-76
2022/05/16 10:39:09;;;;;;;0.15;0.15;;;;;;;28.08;40.07;99196.53;5033915;28;20068;-75
2022/05/16 10:41:50;;;;;;;0.00;0.00;;;;;;;28.18;39.63;99196.94;5033956;28;20103;-76
2022/05/16 10:44:40;;;;;;;0.25;0.25;;;;;;;28.29;39.33;99197.72;5033951;28;20065;-75
2022/05/16 10:47:21;;;;;;;0.10;0.10;;;;;;;28.38;38.33;99187.13;5033976;28;20036;-76
2022/05/16 10:50:11;;;;;;;0.00;0.00;;;;;;;28.45;38.86;99183.56;5033594;28;20162;-75
2022/05/16 10:52:36;;;;;;;0.00;0.00;;;;;;;28.56;38.64;99180.81;5033989;28;20473;-76
2022/05/16 10:55:03;;;;;;;0.00;0.00;;;;;;;28.60;37.75;99179.63;5033465;28;20029;-75
2022/05/16 10:57:37;;;;;;;0.22;0.22;;;;;;;28.58;36.93;99178.47;5033736;28;20481;-76
2022/05/16 11:00:19;;;;;;;0.20;0.20;;;;;;;28.47;36.90;99169.44;5048775;28;20052;-75
2022/05/16 11:02:59;;;;;;;0.03;0.03;;;;;;;28.52;37.19;99169.03;5033419;28;20041;-76
2022/05/16 11:05:48;;;;;;;0.00;0.00;;;;;;;28.53;36.43;99167.88;5033652;28;20053;-76
2022/05/16 11:08:21;;;;;;;0.00;0.00;;;;;;;28.48;36.17;99163.53;5033309;28;20108;-75
2022/05/16 11:11:04;;;;;;;0.10;0.10;;;;;;;28.48;36.35;99158.03;5033130;28;20109;-75
2022/05/16 11:13:40;;;;;;;0.10;0.10;;;;;;;28.51;36.92;99156.47;5033396;28;20033;-75
2022/05/16 11:16:11;;;;;;;0.10;0.10;;;;;;;28.56;37.55;99151.34;5033439;28;20120;-75
2022/05/16 11:19:07;;;;;;;0.10;0.10;;;;;;;28.68;37.28;99160.38;5033244;28;20510;-76
2022/05/16 11:22:04;;;;;;;0.10;0.10;;;;;;;28.77;37.24;99154.47;5012927;28;20072;-76
2022/05/16 11:24:44;;;;;;;0.33;0.33;;;;;;;28.90;36.49;99148.13;5032990;28;20572;-76
2022/05/16 11:27:31;;;;;;;0.10;0.10;;;;;;;28.96;36.07;99142.25;5033169;28;20268;-76
2022/05/16 11:30:34;;;;;;;0.52;0.52;;;;;;;29.07;34.90;99134.72;5032699;28;20032;-75
2022/05/16 11:33:07;;;;;;;0.20;0.20;;;;;;;29.19;35.54;99134.28;5032792;28;20026;-75
2022/05/16 11:35:48;;;;;;;0.00;0.00;;;;;;;29.24;34.99;99125.59;5032937;28;20104;-75
2022/05/16 11:38:40;;;;;;;0.00;0.00;;;;;;;29.34;35.76;99129.50;5032651;28;20417;-75
2022/05/16 11:41:17;;;;;;;0.20;0.20;;;;;;;29.36;35.49;99115.34;5032401;28;20128;-76
2022/05/16 11:43:48;;;;;;;0.00;0.00;;;;;;;29.36;34.92;99109.84;5032544;28;20026;-76
2022/05/16 11:46:27;;;;;;;0.10;0.10;;;;;;;29.31;34.35;99112.97;5032782;28;20037;-76
2022/05/16 11:49:31;;;;;;;0.00;0.00;;;;;;;29.21;34.34;99107.13;5032620;28;20026;-75
2022/05/16 11:52:18;;;;;;;0.00;0.00;;;;;;;29.24;35.62;99102.78;5032471;28;20034;-76
2022/05/16 11:54:56;;;;;;;0.00;0.00;;;;;;;29.11;35.48;99098.91;5032574;28;20124;-76
2022/05/16 12:03:06;;;;;;;0.00;0.00;;;;;;;29.01;34.99;99078.50;5031942;28;20056;-74
2022/05/16 12:05:39;;;;;;;0.10;0.10;;;;;;;29.05;35.94;99074.56;5032285;28;20493;-75
2022/05/16 12:08:25;;;;;;;0.13;0.13;;;;;;;29.19;35.98;99073.69;5032184;28;20061;-75
2022/05/16 12:10:57;;;;;;;0.20;0.20;;;;;;;29.36;35.14;99063.00;5032120;28;20056;-75
2022/05/16 12:13:28;;;;;;;0.20;0.20;;;;;;;29.45;34.58;99079.84;5032508;28;20473;-75
2022/05/16 12:16:18;;;;;;;0.30;0.30;;;;;;;29.40;33.44;99072.03;5047295;28;20024;-75
2022/05/16 12:19:29;;;;;;;0.32;0.32;;;;;;;29.40;34.57;99069.28;5032132;28;20521;-75
2022/05/16 12:22:01;;;;;;;0.10;0.10;;;;;;;29.41;34.77;99070.84;5031733;28;20041;-75
2022/05/16 12:24:46;;;;;;;0.85;0.30;;;;;;;29.48;34.51;99068.03;5030742;28;20033;-75
2022/05/16 12:27:16;;;;;;;0.08;0.08;;;;;;;29.58;34.61;99058.13;5032082;28;20045;-75
2022/05/16 12:29:52;;;;;;;0.10;0.10;;;;;;;29.60;35.09;99063.22;5031511;28;20037;-75